sensor_id;sensor_type;location;lat;lon;timestamp;P1;durP1;ratioP1;P2;durP2;ratioP2
1577;SDS011;57623;53.608;10.004;2023-03-23T00:01:29;7.70;;;7.00;;
1577;SDS011;57623;53.608;10.004;2023-03-23T00:04:03;8.07;;;6.70;;
1577;SDS011;57623;53.608;10.004;2023-03-23T00:06:30;8.10;;;7.40;;
1577;SDS011;57623;53.608;10.004;2023-03-23T00:09:00;10.90;;;8.47;;
1577;SDS011;57623;53.608;10.004;2023-03-23T00:11:29;8.63;;;7.83;;
1577;SDS011;57623;53.608;10.004;2023-03-23T00:13:58;8.97;;;8.27;;
1577;SDS011;57623;53.608;10.004;2023-03-23T00:16:28;8.63;;;7.93;;
1577;SDS011;57623;53.608;10.004;2023-03-23T00:18:58;9.50;;;8.37;;
1577;SDS011;57623;53.608;10.004;2023-03-23T00:21:28;9.93;;;8.70;;
1577;SDS011;57623;53.608;10.004;2023-03-23T00:24:00;10.67;;;9.60;;
1577;SDS011;57623;53.608;10.004;2023-03-23T00:26:28;9.97;;;8.90;;
1577;SDS011;57623;53.608;10.004;2023-03-23T00:28:58;10.73;;;8.90;;
1577;SDS011;57623;53.608;10.004;2023-03-23T00:31:26;11.10;;;10.00;;
1577;SDS011;57623;53.608;10.004;2023-03-23T00:33:56;11.27;;;10.17;;
1577;SDS011;57623;53.608;10.004;2023-03-23T00:36:26;10.93;;;9.83;;
1577;SDS011;57623;53.608;10.004;2023-03-23T00:38:54;11.50;;;10.40;;
1577;SDS011;57623;53.608;10.004;2023-03-23T00:41:24;11.57;;;10.47;;
1577;SDS011;57623;53.608;10.004;2023-03-23T00:43:53;11.77;;;10.60;;
1577;SDS011;57623;53.608;10.004;2023-03-23T00:46:21;13.83;;;12.43;;
1577;SDS011;57623;53.608;10.004;2023-03-23T00:48:48;15.20;;;12.00;;
1577;SDS011;57623;53.608;10.004;2023-03-23T00:51:16;13.20;;;11.90;;
1577;SDS011;57623;53.608;10.004;2023-03-23T00:53:44;12.37;;;11.27;;
1577;SDS011;57623;53.608;10.004;2023-03-23T00:56:12;12.07;;;10.93;;
1577;SDS011;57623;53.608;10.004;2023-03-23T00:58:40;12.90;;;11.60;;
1577;SDS011;57623;53.608;10.004;2023-03-23T01:01:07;12.37;;;11.17;;
1577;SDS011;57623;53.608;10.004;2023-03-23T01:03:35;12.87;;;11.67;;
1577;SDS011;57623;53.608;10.004;2023-03-23T01:06:06;12.57;;;11.37;;
1577;SDS011;57623;53.608;10.004;2023-03-23T01:08:37;12.30;;;11.00;;
1577;SDS011;57623;53.608;10.004;2023-03-23T01:11:12;11.53;;;10.50;;
1577;SDS011;57623;53.608;10.004;2023-03-23T01:13:40;11.53;;;10.43;;
1577;SDS011;57623;53.608;10.004;2023-03-23T01:16:08;12.00;;;10.80;;
1577;SDS011;57623;53.608;10.004;2023-03-23T01:18:36;12.17;;;10.93;;
1577;SDS011;57623;53.608;10.004;2023-03-23T01:21:03;12.77;;;11.47;;
1577;SDS011;57623;53.608;10.004;2023-03-23T01:23:31;10.80;;;9.80;;
1577;SDS011;57623;53.608;10.004;2023-03-23T01:26:01;10.77;;;9.77;;
1577;SDS011;57623;53.608;10.004;2023-03-23T01:28:30;11.17;;;9.97;;
1577;SDS011;57623;53.608;10.004;2023-03-23T01:31:01;11.30;;;10.20;;
1577;SDS011;57623;53.608;10.004;2023-03-23T01:33:29;12.30;;;11.10;;
1577;SDS011;57623;53.608;10.004;2023-03-23T01:35:56;11.00;;;10.00;;
1577;SDS011;57623;53.608;10.004;2023-03-23T01:38:23;11.23;;;10.23;;
1577;SDS011;57623;53.608;10.004;2023-03-23T01:40:50;12.10;;;10.97;;
1577;SDS011;57623;53.608;10.004;2023-03-23T01:43:17;12.37;;;11.10;;
1577;SDS011;57623;53.608;10.004;2023-03-23T01:45:46;12.93;;;11.63;;
1577;SDS011;57623;53.608;10.004;2023-03-23T01:48:15;12.63;;;11.47;;
1577;SDS011;57623;53.608;10.004;2023-03-23T01:50:48;13.83;;;11.13;;
1577;SDS011;57623;53.608;10.004;2023-03-23T01:53:18;13.73;;;12.47;;
1577;SDS011;57623;53.608;10.004;2023-03-23T01:55:46;14.10;;;12.80;;
1577;SDS011;57623;53.608;10.004;2023-03-23T01:58:16;12.93;;;11.73;;
1577;SDS011;57623;53.608;10.004;2023-03-23T02:00:47;13.40;;;12.00;;
1577;SDS011;57623;53.608;10.004;2023-03-23T02:03:14;14.47;;;13.07;;
1577;SDS011;57623;53.608;10.004;2023-03-23T02:05:42;13.40;;;12.10;;
1577;SDS011;57623;53.608;10.004;2023-03-23T02:08:10;14.17;;;12.87;;
1577;SDS011;57623;53.608;10.004;2023-03-23T02:10:40;13.30;;;11.90;;
1577;SDS011;57623;53.608;10.004;2023-03-23T02:13:07;13.90;;;12.50;;
1577;SDS011;57623;53.608;10.004;2023-03-23T02:15:43;13.17;;;11.90;;
1577;SDS011;57623;53.608;10.004;2023-03-23T02:18:19;14.33;;;12.90;;
1577;SDS011;57623;53.608;10.004;2023-03-23T02:21:08;13.10;;;11.80;;
1577;SDS011;57623;53.608;10.004;2023-03-23T02:24:01;13.73;;;12.33;;
1577;SDS011;57623;53.608;10.004;2023-03-23T02:26:47;13.30;;;12.10;;
1577;SDS011;57623;53.608;10.004;2023-03-23T02:29:32;12.63;;;11.43;;
1577;SDS011;57623;53.608;10.004;2023-03-23T02:32:24;13.33;;;12.10;;
1577;SDS011;57623;53.608;10.004;2023-03-23T02:35:10;11.97;;;10.87;;
1577;SDS011;57623;53.608;10.004;2023-03-23T02:37:43;11.90;;;10.80;;
1577;SDS011;57623;53.608;10.004;2023-03-23T02:40:15;13.10;;;11.90;;
1577;SDS011;57623;53.608;10.004;2023-03-23T02:42:47;12.87;;;11.67;;
1577;SDS011;57623;53.608;10.004;2023-03-23T02:45:18;13.23;;;12.03;;
1577;SDS011;57623;53.608;10.004;2023-03-23T02:47:48;13.50;;;12.30;;
1577;SDS011;57623;53.608;10.004;2023-03-23T02:50:20;12.80;;;11.60;;
1577;SDS011;57623;53.608;10.004;2023-03-23T02:52:49;12.50;;;11.50;;
1577;SDS011;57623;53.608;10.004;2023-03-23T02:55:19;12.43;;;11.33;;
1577;SDS011;57623;53.608;10.004;2023-03-23T02:57:50;11.37;;;10.37;;
1577;SDS011;57623;53.608;10.004;2023-03-23T03:00:19;12.53;;;11.40;;
1577;SDS011;57623;53.608;10.004;2023-03-23T03:02:47;11.80;;;10.70;;
1577;SDS011;57623;53.608;10.004;2023-03-23T03:05:20;12.30;;;11.27;;
1577;SDS011;57623;53.608;10.004;2023-03-23T03:08:01;12.40;;;11.33;;
1577;SDS011;57623;53.608;10.004;2023-03-23T03:10:40;11.87;;;10.87;;
1577;SDS011;57623;53.608;10.004;2023-03-23T03:13:13;13.53;;;12.30;;
1577;SDS011;57623;53.608;10.004;2023-03-23T03:15:47;12.60;;;11.30;;
1577;SDS011;57623;53.608;10.004;2023-03-23T03:18:18;12.57;;;11.37;;
1577;SDS011;57623;53.608;10.004;2023-03-23T03:20:52;13.57;;;12.37;;
1577;SDS011;57623;53.608;10.004;2023-03-23T03:23:23;12.90;;;11.80;;
1577;SDS011;57623;53.608;10.004;2023-03-23T03:25:51;13.43;;;12.23;;
1577;SDS011;57623;53.608;10.004;2023-03-23T03:28:22;12.83;;;11.63;;
1577;SDS011;57623;53.608;10.004;2023-03-23T03:30:52;13.10;;;12.00;;
1577;SDS011;57623;53.608;10.004;2023-03-23T03:33:21;13.17;;;11.87;;
1577;SDS011;57623;53.608;10.004;2023-03-23T03:35:52;12.97;;;11.83;;
1577;SDS011;57623;53.608;10.004;2023-03-23T03:38:21;12.87;;;11.73;;
1577;SDS011;57623;53.608;10.004;2023-03-23T03:43:47;13.90;;;12.50;;
1577;SDS011;57623;53.608;10.004;2023-03-23T03:46:14;13.20;;;12.00;;
1577;SDS011;57623;53.608;10.004;2023-03-23T03:48:41;13.40;;;12.20;;
1577;SDS011;57623;53.608;10.004;2023-03-23T03:51:09;14.70;;;13.23;;
1577;SDS011;57623;53.608;10.004;2023-03-23T03:53:36;13.80;;;12.50;;
1577;SDS011;57623;53.608;10.004;2023-03-23T03:56:03;13.97;;;12.70;;
1577;SDS011;57623;53.608;10.004;2023-03-23T03:58:32;13.93;;;12.63;;
1577;SDS011;57623;53.608;10.004;2023-03-23T04:01:01;14.13;;;12.83;;
1577;SDS011;57623;53.608;10.004;2023-03-23T04:03:29;14.80;;;13.40;;
1577;SDS011;57623;53.608;10.004;2023-03-23T04:05:56;14.13;;;12.70;;
1577;SDS011;57623;53.608;10.004;2023-03-23T04:08:25;15.03;;;13.77;;
1577;SDS011;57623;53.608;10.004;2023-03-23T04:10:53;13.87;;;12.67;;
1577;SDS011;57623;53.608;10.004;2023-03-23T04:13:20;13.30;;;12.03;;
1577;SDS011;57623;53.608;10.004;2023-03-23T04:15:48;14.50;;;13.20;;
1577;SDS011;57623;53.608;10.004;2023-03-23T04:18:15;14.40;;;13.10;;
1577;SDS011;57623;53.608;10.004;2023-03-23T04:20:43;13.13;;;11.93;;
1577;SDS011;57623;53.608;10.004;2023-03-23T04:23:12;13.37;;;12.27;;
1577;SDS011;57623;53.608;10.004;2023-03-23T04:25:41;13.37;;;12.03;;
1577;SDS011;57623;53.608;10.004;2023-03-23T04:28:08;13.17;;;11.93;;
1577;SDS011;57623;53.608;10.004;2023-03-23T04:30:35;12.07;;;11.07;;
1577;SDS011;57623;53.608;10.004;2023-03-23T04:33:02;13.10;;;11.90;;
1577;SDS011;57623;53.608;10.004;2023-03-23T04:35:29;12.73;;;11.60;;
1577;SDS011;57623;53.608;10.004;2023-03-23T04:37:56;13.83;;;12.53;;
1577;SDS011;57623;53.608;10.004;2023-03-23T04:40:23;13.43;;;12.17;;
1577;SDS011;57623;53.608;10.004;2023-03-23T04:42:52;13.57;;;12.37;;
1577;SDS011;57623;53.608;10.004;2023-03-23T04:45:22;13.80;;;12.60;;
1577;SDS011;57623;53.608;10.004;2023-03-23T04:47:50;12.83;;;11.83;;
1577;SDS011;57623;53.608;10.004;2023-03-23T04:50:22;15.03;;;13.40;;
1577;SDS011;57623;53.608;10.004;2023-03-23T04:52:52;15.43;;;12.93;;
1577;SDS011;57623;53.608;10.004;2023-03-23T04:55:22;14.30;;;13.00;;
1577;SDS011;57623;53.608;10.004;2023-03-23T04:57:51;13.77;;;12.50;;
1577;SDS011;57623;53.608;10.004;2023-03-23T05:00:19;14.10;;;12.90;;
1577;SDS011;57623;53.608;10.004;2023-03-23T05:02:47;13.50;;;12.37;;
1577;SDS011;57623;53.608;10.004;2023-03-23T05:05:17;13.60;;;12.30;;
1577;SDS011;57623;53.608;10.004;2023-03-23T05:07:44;14.70;;;13.30;;
1577;SDS011;57623;53.608;10.004;2023-03-23T05:10:12;14.00;;;12.77;;
1577;SDS011;57623;53.608;10.004;2023-03-23T05:12:40;14.17;;;12.77;;
1577;SDS011;57623;53.608;10.004;2023-03-23T05:15:09;13.87;;;12.67;;
1577;SDS011;57623;53.608;10.004;2023-03-23T05:17:37;14.80;;;13.40;;
1577;SDS011;57623;53.608;10.004;2023-03-23T05:20:06;13.70;;;12.60;;
1577;SDS011;57623;53.608;10.004;2023-03-23T05:22:36;14.93;;;13.63;;
1577;SDS011;57623;53.608;10.004;2023-03-23T05:25:03;14.73;;;13.53;;
1577;SDS011;57623;53.608;10.004;2023-03-23T05:27:34;14.97;;;13.57;;
1577;SDS011;57623;53.608;10.004;2023-03-23T05:30:01;13.67;;;12.47;;
1577;SDS011;57623;53.608;10.004;2023-03-23T05:32:29;13.60;;;12.30;;
1577;SDS011;57623;53.608;10.004;2023-03-23T05:34:56;13.30;;;12.00;;
1577;SDS011;57623;53.608;10.004;2023-03-23T05:37:23;13.63;;;12.40;;
1577;SDS011;57623;53.608;10.004;2023-03-23T05:39:51;14.50;;;13.20;;
1577;SDS011;57623;53.608;10.004;2023-03-23T05:42:20;12.90;;;11.70;;
1577;SDS011;57623;53.608;10.004;2023-03-23T05:44:47;12.87;;;11.57;;
1577;SDS011;57623;53.608;10.004;2023-03-23T05:47:14;13.00;;;11.90;;
1577;SDS011;57623;53.608;10.004;2023-03-23T05:49:43;12.27;;;11.27;;
1577;SDS011;57623;53.608;10.004;2023-03-23T05:52:11;11.73;;;10.60;;
1577;SDS011;57623;53.608;10.004;2023-03-23T05:54:38;11.57;;;10.53;;
1577;SDS011;57623;53.608;10.004;2023-03-23T05:57:06;11.67;;;10.67;;
1577;SDS011;57623;53.608;10.004;2023-03-23T05:59:33;11.40;;;10.37;;
1577;SDS011;57623;53.608;10.004;2023-03-23T06:02:01;11.53;;;10.53;;
1577;SDS011;57623;53.608;10.004;2023-03-23T06:04:28;10.77;;;9.77;;
1577;SDS011;57623;53.608;10.004;2023-03-23T06:06:56;11.13;;;10.03;;
1577;SDS011;57623;53.608;10.004;2023-03-23T06:09:23;11.43;;;10.33;;
1577;SDS011;57623;53.608;10.004;2023-03-23T06:11:50;10.60;;;9.70;;
1577;SDS011;57623;53.608;10.004;2023-03-23T06:14:17;10.83;;;9.73;;
1577;SDS011;57623;53.608;10.004;2023-03-23T06:16:44;10.40;;;9.40;;
1577;SDS011;57623;53.608;10.004;2023-03-23T06:19:11;10.10;;;9.10;;
1577;SDS011;57623;53.608;10.004;2023-03-23T06:21:38;10.50;;;9.47;;
1577;SDS011;57623;53.608;10.004;2023-03-23T06:24:06;9.77;;;8.87;;
1577;SDS011;57623;53.608;10.004;2023-03-23T06:26:35;10.53;;;8.80;;
1577;SDS011;57623;53.608;10.004;2023-03-23T06:29:03;9.90;;;9.00;;
1577;SDS011;57623;53.608;10.004;2023-03-23T06:31:36;8.73;;;7.93;;
1577;SDS011;57623;53.608;10.004;2023-03-23T06:34:05;10.13;;;9.20;;
1577;SDS011;57623;53.608;10.004;2023-03-23T06:36:32;8.87;;;8.07;;
1577;SDS011;57623;53.608;10.004;2023-03-23T06:38:59;9.03;;;8.20;;
1577;SDS011;57623;53.608;10.004;2023-03-23T06:41:27;8.07;;;7.47;;
1577;SDS011;57623;53.608;10.004;2023-03-23T06:43:54;7.63;;;6.93;;
1577;SDS011;57623;53.608;10.004;2023-03-23T06:46:21;7.77;;;7.10;;
1577;SDS011;57623;53.608;10.004;2023-03-23T06:48:48;8.03;;;7.43;;
1577;SDS011;57623;53.608;10.004;2023-03-23T06:51:16;6.73;;;6.23;;
1577;SDS011;57623;53.608;10.004;2023-03-23T06:53:44;8.23;;;7.43;;
1577;SDS011;57623;53.608;10.004;2023-03-23T06:56:11;7.37;;;6.60;;
1577;SDS011;57623;53.608;10.004;2023-03-23T06:58:39;6.73;;;6.20;;
1577;SDS011;57623;53.608;10.004;2023-03-23T07:01:07;7.67;;;6.87;;
1577;SDS011;57623;53.608;10.004;2023-03-23T07:03:34;7.03;;;6.33;;
1577;SDS011;57623;53.608;10.004;2023-03-23T07:06:01;7.03;;;6.40;;
1577;SDS011;57623;53.608;10.004;2023-03-23T07:08:29;7.50;;;6.60;;
1577;SDS011;57623;53.608;10.004;2023-03-23T07:10:56;7.10;;;6.40;;
1577;SDS011;57623;53.608;10.004;2023-03-23T07:13:23;7.53;;;6.80;;
1577;SDS011;57623;53.608;10.004;2023-03-23T07:15:52;6.83;;;6.23;;
1577;SDS011;57623;53.608;10.004;2023-03-23T07:18:19;6.00;;;5.50;;
1577;SDS011;57623;53.608;10.004;2023-03-23T07:20:47;6.10;;;5.60;;
1577;SDS011;57623;53.608;10.004;2023-03-23T07:23:14;6.23;;;5.73;;
1577;SDS011;57623;53.608;10.004;2023-03-23T07:25:42;6.10;;;5.50;;
1577;SDS011;57623;53.608;10.004;2023-03-23T07:28:10;6.60;;;6.00;;
1577;SDS011;57623;53.608;10.004;2023-03-23T07:30:37;6.63;;;6.13;;
1577;SDS011;57623;53.608;10.004;2023-03-23T07:33:06;6.37;;;5.70;;
1577;SDS011;57623;53.608;10.004;2023-03-23T07:35:34;6.37;;;5.77;;
1577;SDS011;57623;53.608;10.004;2023-03-23T07:38:02;6.73;;;5.90;;
1577;SDS011;57623;53.608;10.004;2023-03-23T07:40:29;6.07;;;5.50;;
1577;SDS011;57623;53.608;10.004;2023-03-23T07:42:58;6.23;;;5.73;;
1577;SDS011;57623;53.608;10.004;2023-03-23T07:45:26;7.13;;;4.80;;
1577;SDS011;57623;53.608;10.004;2023-03-23T07:47:53;6.73;;;5.73;;
1577;SDS011;57623;53.608;10.004;2023-03-23T07:50:22;6.30;;;5.67;;
1577;SDS011;57623;53.608;10.004;2023-03-23T07:52:50;5.50;;;5.10;;
1577;SDS011;57623;53.608;10.004;2023-03-23T07:55:17;6.47;;;5.87;;
1577;SDS011;57623;53.608;10.004;2023-03-23T07:57:45;6.30;;;5.80;;
1577;SDS011;57623;53.608;10.004;2023-03-23T08:00:14;5.80;;;5.40;;
1577;SDS011;57623;53.608;10.004;2023-03-23T08:02:43;6.30;;;5.73;;
1577;SDS011;57623;53.608;10.004;2023-03-23T08:05:11;6.00;;;5.50;;
1577;SDS011;57623;53.608;10.004;2023-03-23T08:07:40;6.03;;;5.53;;
1577;SDS011;57623;53.608;10.004;2023-03-23T08:10:08;6.60;;;5.90;;
1577;SDS011;57623;53.608;10.004;2023-03-23T08:12:37;6.83;;;6.27;;
1577;SDS011;57623;53.608;10.004;2023-03-23T08:15:04;6.70;;;6.20;;
1577;SDS011;57623;53.608;10.004;2023-03-23T08:17:32;6.90;;;6.30;;
1577;SDS011;57623;53.608;10.004;2023-03-23T08:20:00;7.00;;;6.30;;
1577;SDS011;57623;53.608;10.004;2023-03-23T08:22:37;7.60;;;6.20;;
1577;SDS011;57623;53.608;10.004;2023-03-23T08:25:07;6.20;;;5.60;;
1577;SDS011;57623;53.608;10.004;2023-03-23T08:27:36;4.53;;;3.57;;
1577;SDS011;57623;53.608;10.004;2023-03-23T08:30:08;3.43;;;2.70;;
1577;SDS011;57623;53.608;10.004;2023-03-23T08:32:37;2.83;;;2.60;;
1577;SDS011;57623;53.608;10.004;2023-03-23T08:35:05;6.60;;;3.50;;
1577;SDS011;57623;53.608;10.004;2023-03-23T08:37:33;3.20;;;3.00;;
1577;SDS011;57623;53.608;10.004;2023-03-23T08:40:00;3.80;;;3.00;;
1577;SDS011;57623;53.608;10.004;2023-03-23T08:42:33;3.27;;;3.07;;
1577;SDS011;57623;53.608;10.004;2023-03-23T08:45:01;3.33;;;3.03;;
1577;SDS011;57623;53.608;10.004;2023-03-23T08:47:28;3.10;;;2.90;;
1577;SDS011;57623;53.608;10.004;2023-03-23T08:49:55;2.63;;;2.43;;
1577;SDS011;57623;53.608;10.004;2023-03-23T08:52:22;3.43;;;2.90;;
1577;SDS011;57623;53.608;10.004;2023-03-23T08:54:49;2.87;;;2.63;;
1577;SDS011;57623;53.608;10.004;2023-03-23T08:57:16;4.50;;;2.40;;
1577;SDS011;57623;53.608;10.004;2023-03-23T08:59:45;2.80;;;2.60;;
1577;SDS011;57623;53.608;10.004;2023-03-23T09:02:12;3.90;;;3.00;;
1577;SDS011;57623;53.608;10.004;2023-03-23T09:04:40;2.70;;;2.50;;
1577;SDS011;57623;53.608;10.004;2023-03-23T09:07:08;4.83;;;2.93;;
1577;SDS011;57623;53.608;10.004;2023-03-23T09:09:36;3.90;;;3.40;;
1577;SDS011;57623;53.608;10.004;2023-03-23T09:12:05;5.03;;;3.43;;
1577;SDS011;57623;53.608;10.004;2023-03-23T09:14:32;5.47;;;3.63;;
1577;SDS011;57623;53.608;10.004;2023-03-23T09:17:00;4.47;;;3.40;;
1577;SDS011;57623;53.608;10.004;2023-03-23T09:19:28;4.13;;;3.30;;
1577;SDS011;57623;53.608;10.004;2023-03-23T09:21:54;3.70;;;3.20;;
1577;SDS011;57623;53.608;10.004;2023-03-23T09:24:21;5.43;;;2.90;;
1577;SDS011;57623;53.608;10.004;2023-03-23T09:26:48;6.13;;;3.37;;
1577;SDS011;57623;53.608;10.004;2023-03-23T09:29:15;3.73;;;2.73;;
1577;SDS011;57623;53.608;10.004;2023-03-23T09:31:43;5.50;;;2.70;;
1577;SDS011;57623;53.608;10.004;2023-03-23T09:34:13;5.80;;;3.03;;
1577;SDS011;57623;53.608;10.004;2023-03-23T09:36:41;3.70;;;2.20;;
1577;SDS011;57623;53.608;10.004;2023-03-23T09:39:09;4.00;;;2.60;;
1577;SDS011;57623;53.608;10.004;2023-03-23T09:41:44;7.30;;;2.43;;
1577;SDS011;57623;53.608;10.004;2023-03-23T09:44:27;4.43;;;2.30;;
1577;SDS011;57623;53.608;10.004;2023-03-23T09:47:03;5.20;;;2.70;;
1577;SDS011;57623;53.608;10.004;2023-03-23T09:49:37;7.00;;;2.73;;
1577;SDS011;57623;53.608;10.004;2023-03-23T09:52:09;5.00;;;3.23;;
1577;SDS011;57623;53.608;10.004;2023-03-23T09:54:40;4.40;;;2.23;;
1577;SDS011;57623;53.608;10.004;2023-03-23T09:57:11;5.17;;;2.77;;
1577;SDS011;57623;53.608;10.004;2023-03-23T09:59:45;7.17;;;2.73;;
1577;SDS011;57623;53.608;10.004;2023-03-23T10:02:18;4.73;;;2.40;;
1577;SDS011;57623;53.608;10.004;2023-03-23T10:04:51;5.83;;;3.03;;
1577;SDS011;57623;53.608;10.004;2023-03-23T10:07:22;6.23;;;2.37;;
1577;SDS011;57623;53.608;10.004;2023-03-23T10:09:51;4.27;;;1.90;;
1577;SDS011;57623;53.608;10.004;2023-03-23T10:12:21;7.40;;;3.07;;
1577;SDS011;57623;53.608;10.004;2023-03-23T10:15:12;4.80;;;2.10;;
1577;SDS011;57623;53.608;10.004;2023-03-23T10:17:44;5.90;;;2.27;;
1577;SDS011;57623;53.608;10.004;2023-03-23T10:20:35;5.03;;;2.43;;
1577;SDS011;57623;53.608;10.004;2023-03-23T10:23:23;8.77;;;3.50;;
1577;SDS011;57623;53.608;10.004;2023-03-23T10:26:04;5.60;;;2.57;;
1577;SDS011;57623;53.608;10.004;2023-03-23T10:28:39;6.87;;;2.67;;
1577;SDS011;57623;53.608;10.004;2023-03-23T10:31:09;4.00;;;2.17;;
1577;SDS011;57623;53.608;10.004;2023-03-23T10:33:38;4.10;;;2.00;;
1577;SDS011;57623;53.608;10.004;2023-03-23T10:36:10;4.17;;;2.50;;
1577;SDS011;57623;53.608;10.004;2023-03-23T10:38:42;4.87;;;2.53;;
1577;SDS011;57623;53.608;10.004;2023-03-23T10:41:12;5.07;;;2.30;;
1577;SDS011;57623;53.608;10.004;2023-03-23T10:43:41;4.57;;;2.40;;
1577;SDS011;57623;53.608;10.004;2023-03-23T10:46:12;9.97;;;3.37;;
1577;SDS011;57623;53.608;10.004;2023-03-23T10:48:48;6.70;;;3.10;;
1577;SDS011;57623;53.608;10.004;2023-03-23T10:51:19;7.07;;;2.83;;
1577;SDS011;57623;53.608;10.004;2023-03-23T10:53:50;6.37;;;2.80;;
1577;SDS011;57623;53.608;10.004;2023-03-23T10:56:23;5.27;;;2.67;;
1577;SDS011;57623;53.608;10.004;2023-03-23T10:58:52;5.87;;;2.37;;
1577;SDS011;57623;53.608;10.004;2023-03-23T11:01:20;5.80;;;2.60;;
1577;SDS011;57623;53.608;10.004;2023-03-23T11:03:56;6.43;;;2.37;;
1577;SDS011;57623;53.608;10.004;2023-03-23T11:06:27;4.70;;;2.60;;
1577;SDS011;57623;53.608;10.004;2023-03-23T11:08:58;5.30;;;2.60;;
1577;SDS011;57623;53.608;10.004;2023-03-23T11:11:29;9.13;;;2.87;;
1577;SDS011;57623;53.608;10.004;2023-03-23T11:13:58;6.77;;;2.50;;
1577;SDS011;57623;53.608;10.004;2023-03-23T11:16:27;6.67;;;2.30;;
1577;SDS011;57623;53.608;10.004;2023-03-23T11:18:56;11.83;;;3.40;;
1577;SDS011;57623;53.608;10.004;2023-03-23T11:21:24;6.53;;;3.17;;
1577;SDS011;57623;53.608;10.004;2023-03-23T11:23:54;5.60;;;2.30;;
1577;SDS011;57623;53.608;10.004;2023-03-23T11:26:24;4.77;;;2.23;;
1577;SDS011;57623;53.608;10.004;2023-03-23T11:28:55;6.93;;;2.30;;
1577;SDS011;57623;53.608;10.004;2023-03-23T11:31:26;8.67;;;3.40;;
1577;SDS011;57623;53.608;10.004;2023-03-23T11:33:57;6.77;;;2.90;;
1577;SDS011;57623;53.608;10.004;2023-03-23T11:36:33;8.20;;;3.33;;
1577;SDS011;57623;53.608;10.004;2023-03-23T11:39:02;8.53;;;3.30;;
1577;SDS011;57623;53.608;10.004;2023-03-23T11:41:32;9.17;;;3.00;;
1577;SDS011;57623;53.608;10.004;2023-03-23T11:44:08;9.67;;;2.47;;
1577;SDS011;57623;53.608;10.004;2023-03-23T11:46:40;6.10;;;2.50;;
1577;SDS011;57623;53.608;10.004;2023-03-23T11:49:15;7.70;;;2.53;;
1577;SDS011;57623;53.608;10.004;2023-03-23T11:51:54;5.93;;;2.10;;
1577;SDS011;57623;53.608;10.004;2023-03-23T11:54:26;7.10;;;2.87;;
1577;SDS011;57623;53.608;10.004;2023-03-23T11:56:57;10.50;;;3.10;;
1577;SDS011;57623;53.608;10.004;2023-03-23T11:59:26;3.23;;;2.60;;
1577;SDS011;57623;53.608;10.004;2023-03-23T12:02:00;7.50;;;3.00;;
1577;SDS011;57623;53.608;10.004;2023-03-23T12:04:47;7.20;;;2.80;;
1577;SDS011;57623;53.608;10.004;2023-03-23T12:07:38;7.07;;;3.50;;
1577;SDS011;57623;53.608;10.004;2023-03-23T12:10:17;11.60;;;4.57;;
1577;SDS011;57623;53.608;10.004;2023-03-23T12:12:57;7.07;;;4.07;;
1577;SDS011;57623;53.608;10.004;2023-03-23T12:15:33;5.13;;;3.47;;
1577;SDS011;57623;53.608;10.004;2023-03-23T12:18:06;5.23;;;3.77;;
1577;SDS011;57623;53.608;10.004;2023-03-23T12:20:45;3.37;;;3.07;;
1577;SDS011;57623;53.608;10.004;2023-03-23T12:23:25;5.53;;;3.50;;
1577;SDS011;57623;53.608;10.004;2023-03-23T12:26:03;7.10;;;4.00;;
1577;SDS011;57623;53.608;10.004;2023-03-23T12:28:49;7.13;;;4.10;;
1577;SDS011;57623;53.608;10.004;2023-03-23T12:31:39;5.07;;;3.70;;
1577;SDS011;57623;53.608;10.004;2023-03-23T12:34:16;7.67;;;4.67;;
1577;SDS011;57623;53.608;10.004;2023-03-23T12:36:53;9.10;;;4.50;;
1577;SDS011;57623;53.608;10.004;2023-03-23T12:42:36;6.50;;;4.50;;
1577;SDS011;57623;53.608;10.004;2023-03-23T12:45:13;6.77;;;4.77;;
1577;SDS011;57623;53.608;10.004;2023-03-23T12:47:49;8.90;;;5.30;;
1577;SDS011;57623;53.608;10.004;2023-03-23T12:50:24;5.40;;;4.13;;
1577;SDS011;57623;53.608;10.004;2023-03-23T12:52:55;26.87;;;19.13;;
1577;SDS011;57623;53.608;10.004;2023-03-23T12:55:27;12.43;;;8.20;;
1577;SDS011;57623;53.608;10.004;2023-03-23T12:58:00;63.03;;;35.57;;
1577;SDS011;57623;53.608;10.004;2023-03-23T13:00:31;45.23;;;28.00;;
1577;SDS011;57623;53.608;10.004;2023-03-23T13:03:17;10.00;;;6.67;;
1577;SDS011;57623;53.608;10.004;2023-03-23T13:05:48;22.77;;;16.10;;
1577;SDS011;57623;53.608;10.004;2023-03-23T13:08:21;8.20;;;7.33;;
1577;SDS011;57623;53.608;10.004;2023-03-23T13:10:54;6.90;;;6.13;;
1577;SDS011;57623;53.608;10.004;2023-03-23T13:13:26;5.80;;;4.57;;
1577;SDS011;57623;53.608;10.004;2023-03-23T13:16:10;8.67;;;6.57;;
1577;SDS011;57623;53.608;10.004;2023-03-23T13:18:43;9.47;;;7.70;;
1577;SDS011;57623;53.608;10.004;2023-03-23T13:21:15;8.10;;;6.80;;
1577;SDS011;57623;53.608;10.004;2023-03-23T13:23:46;4.70;;;4.00;;
1577;SDS011;57623;53.608;10.004;2023-03-23T13:26:18;8.70;;;7.90;;
1577;SDS011;57623;53.608;10.004;2023-03-23T13:28:53;8.50;;;7.60;;
1577;SDS011;57623;53.608;10.004;2023-03-23T13:31:24;6.60;;;4.27;;
1577;SDS011;57623;53.608;10.004;2023-03-23T13:33:59;5.90;;;4.30;;
1577;SDS011;57623;53.608;10.004;2023-03-23T13:36:30;10.30;;;9.40;;
1577;SDS011;57623;53.608;10.004;2023-03-23T13:39:00;4.93;;;3.63;;
1577;SDS011;57623;53.608;10.004;2023-03-23T13:41:31;4.20;;;3.57;;
1577;SDS011;57623;53.608;10.004;2023-03-23T13:44:05;5.00;;;3.80;;
1577;SDS011;57623;53.608;10.004;2023-03-23T13:46:41;7.73;;;6.73;;
1577;SDS011;57623;53.608;10.004;2023-03-23T13:49:20;8.03;;;7.30;;
1577;SDS011;57623;53.608;10.004;2023-03-23T13:51:58;3.93;;;3.60;;
1577;SDS011;57623;53.608;10.004;2023-03-23T13:54:43;5.17;;;4.23;;
1577;SDS011;57623;53.608;10.004;2023-03-23T13:57:23;7.20;;;2.90;;
1577;SDS011;57623;53.608;10.004;2023-03-23T13:59:57;3.80;;;2.27;;
1577;SDS011;57623;53.608;10.004;2023-03-23T14:02:33;1.33;;;1.23;;
1577;SDS011;57623;53.608;10.004;2023-03-23T14:07:56;3.03;;;1.40;;
1577;SDS011;57623;53.608;10.004;2023-03-23T14:10:31;2.10;;;1.60;;
1577;SDS011;57623;53.608;10.004;2023-03-23T14:13:02;1.90;;;1.50;;
1577;SDS011;57623;53.608;10.004;2023-03-23T14:15:31;2.30;;;2.00;;
1577;SDS011;57623;53.608;10.004;2023-03-23T14:18:11;2.10;;;1.90;;
1577;SDS011;57623;53.608;10.004;2023-03-23T14:20:41;3.03;;;1.80;;
1577;SDS011;57623;53.608;10.004;2023-03-23T14:23:14;2.47;;;1.87;;
1577;SDS011;57623;53.608;10.004;2023-03-23T14:25:42;2.20;;;2.00;;
1577;SDS011;57623;53.608;10.004;2023-03-23T14:28:18;2.83;;;1.90;;
1577;SDS011;57623;53.608;10.004;2023-03-23T14:30:47;2.17;;;1.97;;
1577;SDS011;57623;53.608;10.004;2023-03-23T14:33:18;2.63;;;2.40;;
1577;SDS011;57623;53.608;10.004;2023-03-23T14:35:46;4.83;;;2.07;;
1577;SDS011;57623;53.608;10.004;2023-03-23T14:38:15;2.90;;;2.17;;
1577;SDS011;57623;53.608;10.004;2023-03-23T14:40:45;3.87;;;2.37;;
1577;SDS011;57623;53.608;10.004;2023-03-23T14:43:14;2.00;;;1.80;;
1577;SDS011;57623;53.608;10.004;2023-03-23T14:45:44;2.27;;;2.07;;
1577;SDS011;57623;53.608;10.004;2023-03-23T14:48:13;2.97;;;1.80;;
1577;SDS011;57623;53.608;10.004;2023-03-23T14:50:47;2.93;;;2.10;;
1577;SDS011;57623;53.608;10.004;2023-03-23T14:53:16;2.27;;;1.80;;
1577;SDS011;57623;53.608;10.004;2023-03-23T14:55:46;2.60;;;1.87;;
1577;SDS011;57623;53.608;10.004;2023-03-23T14:58:15;3.70;;;2.03;;
1577;SDS011;57623;53.608;10.004;2023-03-23T15:00:47;3.73;;;1.90;;
1577;SDS011;57623;53.608;10.004;2023-03-23T15:03:21;4.37;;;2.00;;
1577;SDS011;57623;53.608;10.004;2023-03-23T15:05:50;3.80;;;2.00;;
1577;SDS011;57623;53.608;10.004;2023-03-23T15:08:22;3.33;;;1.83;;